Latest Weather Observations for Borroloola

IDD60801

Issued at 7:01 pm CST Thursday 2 July 2015 (issued every 30 minutes, with the page automatically refreshed every 10 minutes)

About weather observations | Map of weather stations | Latest weather observations for NT | Other Formats
Station Details ID: 014723 Name: BORROLOOLA AIRPORT Lat: -16.08 Lon: 136.30 Height: 16.1 m
Data from the previous 72 hours. | See also: Recent months at Borroloola
Date/Time
CST
Temp
°C
App
Temp
°C
Dew
Point
Rel
Hum
%
Delta-T
°C
Wind Press
QNH
hPa
Press
MSL
hPa
Rain
since 9 am
mm
Dir
 
Spd
km/h
Gust
km/h
Spd
kts
Gust
kts
02/07:00pm 24.4 24.4 15.3 57 5.5 NNE 9 15 5 8 1016.8 1016.7 0.0
02/06:30pm 25.1 23.9 15.1 53 6.0 NNE 15 20 8 11 1016.3 1016.2 0.0
02/06:00pm 26.3 24.0 14.1 47 7.2 NNE 19 26 10 14 1015.9 1015.8 0.0
02/05:30pm 27.8 25.3 12.2 38 9.0 NE 17 28 9 15 1015.4 1015.3 0.0
02/05:00pm 30.7 27.6 9.0 26 12.1 SSE 15 22 8 12 1015.2 1015.1 0.0
02/04:30pm 30.9 27.1 9.2 26 12.2 SSE 19 28 10 15 1015.0 1014.9 0.0
02/04:00pm 31.0 27.5 8.7 25 12.4 S 17 22 9 12 1015.1 1015.0 0.0
02/03:30pm 30.8 27.8 9.1 26 12.1 SSE 15 20 8 11 1015.3 1015.2 0.0
02/03:00pm 31.1 28.5 9.3 26 12.2 ESE 13 24 7 13 1015.6 1015.5 0.0
02/02:30pm 30.7 27.8 9.6 27 11.9 SE 15 22 8 12 1016.1 1016.0 0.0
02/02:00pm 30.7 27.8 9.6 27 11.9 SSE 15 26 8 14 1016.4 1016.3 0.0
02/01:30pm 30.7 27.0 9.6 27 11.9 ESE 19 28 10 15 1017.0 1016.9 0.0
02/01:00pm 30.0 26.8 10.0 29 11.3 SE 17 26 9 14 1017.6 1017.6 0.0
02/12:30pm 29.3 25.4 9.4 29 11.1 ESE 20 33 11 18 1018.3 1018.3 0.0
02/12:00pm 29.6 26.1 10.2 30 11.0 SE 19 30 10 16 1018.7 1018.7 0.0
02/11:30am 28.6 24.4 9.8 31 10.5 ESE 22 32 12 17 1019.2 1019.2 0.0
02/11:00am 27.9 22.6 9.7 32 10.1 SE 28 35 15 19 1019.7 1019.7 0.0
02/10:30am 27.6 22.7 9.9 33 9.8 SE 26 35 14 19 1020.0 1020.0 0.0
02/10:00am 27.0 21.4 10.2 35 9.4 SE 30 39 16 21 1020.3 1020.3 0.0
02/09:30am 25.7 20.0 9.9 37 8.7 ESE 30 37 16 20 1020.6 1020.6 0.0
02/09:00am 24.9 20.8 10.0 39 8.2 SE 22 35 12 19 1020.5 1020.5 0.0
02/08:30am 23.5 20.8 10.2 43 7.3 SE 15 22 8 12 1020.2 1020.2 0.0
02/08:00am 20.7 20.0 11.3 55 5.2 SSE 6 9 3 5 1020.0 1020.0 0.0
02/07:30am 18.1 19.2 13.6 75 2.5 CALM 0 0 0 0 1019.7 1019.7 0.0
02/07:00am 16.1 16.9 12.7 80 1.9 CALM 0 0 0 0 1019.4 1019.4 0.0
02/06:30am 16.3 16.8 12.8 80 1.9 S 2 6 1 3 1019.0 1019.0 0.0
02/06:00am 16.3 17.1 12.7 79 2.0 CALM 0 0 0 0 1018.9 1018.9 0.0
02/05:30am 16.8 17.5 12.3 75 2.5 CALM 0 0 0 0 1018.5 1018.5 0.0
02/05:00am 17.3 18.1 12.4 73 2.7 CALM 0 0 0 0 1018.3 1018.3 0.0
02/04:30am 17.8 18.6 12.7 72 2.8 CALM 0 0 0 0 1018.2 1018.2 0.0
02/04:00am 18.1 19.0 12.8 71 3.0 CALM 0 0 0 0 1018.2 1018.2 0.0
02/03:30am 19.0 19.2 13.2 69 3.3 S 4 7 2 4 1018.4 1018.4 0.0
02/03:00am 18.9 18.5 13.1 69 3.3 S 7 15 4 8 1018.6 1018.6 0.0
02/02:30am 18.5 18.7 13.1 71 3.0 SSE 4 7 2 4 1018.4 1018.4 0.0
02/02:00am 19.4 19.9 12.9 66 3.7 SSE 2 6 1 3 1018.8 1018.8 0.0
02/01:30am 19.4 20.2 12.7 65 3.8 CALM 0 0 0 0 1018.9 1018.9 0.0
02/01:00am 19.4 20.4 13.3 68 3.5 CALM 0 0 0 0 1018.9 1018.9 0.0
02/12:30am 19.9 21.3 14.3 70 3.2 CALM 0 0 0 0 1019.0 1019.0 0.0
02/12:00am 20.5 21.7 13.7 65 3.9 CALM 0 0 0 0 1019.0 1019.0 0.0
 
Date/Time
CST
Temp
°C
App
Temp
°C
Dew
Point
Rel
Hum
%
Delta-T
°C
Wind Press
QNH
hPa
Press
MSL
hPa
Rain
since 9 am
mm
Dir
 
Spd
km/h
Gust
km/h
Spd
kts
Gust
kts
01/11:30pm 20.9 22.1 13.8 64 4.1 CALM 0 0 0 0 1019.2 1019.2 0.0
01/11:00pm 21.8 23.2 14.4 63 4.3 CALM 0 0 0 0 1019.2 1019.2 0.0
01/10:30pm 22.3 23.3 14.4 61 4.6 ENE 2 6 1 3 1019.3 1019.3 0.0
01/10:00pm 23.1 24.7 14.9 60 4.9 CALM 0 0 0 0 1019.3 1019.3 0.0
01/09:30pm 23.6 24.1 14.9 58 5.2 NE 6 9 3 5 1019.2 1019.2 0.0
01/09:00pm 24.0 23.9 15.0 57 5.4 NE 9 13 5 7 1019.0 1019.0 0.0
01/08:30pm 24.2 24.7 15.1 56 5.4 NE 6 9 3 5 1018.7 1018.7 0.0
01/08:00pm 24.3 25.0 15.5 58 5.3 NE 6 11 3 6 1018.3 1018.3 0.0
01/07:30pm 24.8 24.6 15.7 57 5.5 NE 11 15 6 8 1017.9 1017.9 0.0
01/07:00pm 25.2 24.9 15.5 55 5.9 NNE 11 17 6 9 1017.6 1017.6 0.0
01/06:30pm 25.8 25.3 14.9 51 6.5 NNE 11 19 6 10 1017.4 1017.4 0.0
01/06:00pm 26.5 25.6 14.9 49 7.0 NNE 13 20 7 11 1017.1 1017.0 0.0
01/05:30pm 27.0 25.5 15.4 49 7.1 NNE 17 22 9 12 1016.9 1016.8 0.0
01/05:00pm 27.6 26.0 15.9 49 7.2 NE 19 24 10 13 1016.6 1016.5 0.0
01/04:30pm 29.0 27.5 15.2 43 8.4 ENE 17 22 9 12 1016.2 1016.1 0.0
01/04:00pm 29.4 27.5 15.1 41 8.7 NE 19 26 10 14 1016.2 1016.1 0.0
01/03:30pm 30.0 28.4 14.9 39 9.2 E 17 28 9 15 1016.3 1016.2 0.0
01/03:00pm 30.2 28.1 15.1 40 9.2 E 20 28 11 15 1016.4 1016.3 0.0
01/02:30pm 29.7 28.1 15.0 40 9.0 ENE 17 30 9 16 1016.8 1016.7 0.0
01/02:00pm 29.5 28.2 14.9 41 8.9 E 15 26 8 14 1017.2 1017.1 0.0
01/01:30pm 29.9 28.0 15.2 41 9.0 ESE 19 26 10 14 1017.7 1017.7 0.0
01/01:00pm 28.7 26.9 14.5 42 8.6 SE 17 22 9 12 1018.3 1018.3 0.0
01/12:30pm 28.5 27.4 15.4 45 8.0 SE 15 26 8 14 1019.0 1019.0 0.0
01/12:00pm 27.8 26.8 15.5 47 7.5 ESE 15 24 8 13 1019.6 1019.6 0.0
01/11:30am 27.3 25.9 15.6 48 7.1 ESE 17 26 9 14 1020.1 1020.1 0.0
01/11:00am 26.8 24.5 15.8 51 6.7 ESE 22 30 12 16 1020.4 1020.4 0.0
01/10:30am 25.7 23.6 15.1 52 6.4 SE 20 28 11 15 1020.8 1020.8 0.0
01/10:00am 25.6 23.5 15.3 53 6.2 SE 20 26 11 14 1020.9 1020.9 0.0
01/09:30am 24.9 23.7 15.0 54 5.9 SE 15 22 8 12 1020.9 1020.9 0.0
01/09:00am 24.2 22.6 15.1 56 5.4 SE 17 22 9 12 1020.9 1020.9 0.0
01/08:30am 23.6 23.3 15.4 60 4.9 SE 11 17 6 9 1020.5 1020.5 0.0
01/08:00am 22.8 22.7 16.1 66 4.1 SSE 11 13 6 7 1020.1 1020.1 0.0
01/07:30am 21.2 22.1 16.2 73 3.0 S 6 7 3 4 1019.8 1019.8 0.0
01/07:00am 20.6 22.0 16.4 77 2.5 ESE 4 6 2 3 1019.3 1019.2 0.0
01/06:30am 19.9 21.9 16.0 78 2.3 CALM 0 0 0 0 1018.8 1018.7 0.0
01/06:00am 20.1 22.0 15.7 76 2.6 CALM 0 0 0 0 1018.4 1018.3 0.0
01/05:30am 20.3 21.7 15.5 74 2.8 SSE 2 6 1 3 1018.2 1018.1 0.0
01/05:00am 20.2 21.8 16.0 77 2.5 S 2 9 1 5 1018.2 1018.1 0.0
01/04:30am 19.7 21.8 16.2 80 2.1 CALM 0 0 0 0 1018.2 1018.1 0.0
01/04:00am 19.7 20.3 15.4 76 2.5 S 6 7 3 4 1018.0 1017.9 0.0
01/03:30am 20.1 20.9 16.3 79 2.3 SSW 7 9 4 5 1017.9 1017.8 0.0
01/03:00am 20.1 20.9 16.3 79 2.3 SSW 7 9 4 5 1018.0 1017.9 0.0
01/02:30am 19.8 20.4 15.9 78 2.3 SSE 7 9 4 5 1018.0 1017.9 0.0
01/02:00am 19.8 21.8 15.9 78 2.3 CALM 0 0 0 0 1018.2 1018.1 0.0
01/01:30am 19.6 21.2 15.0 75 2.7 CALM 0 0 0 0 1018.3 1018.2 0.0
01/01:00am 20.1 22.0 15.7 76 2.6 CALM 0 0 0 0 1018.4 1018.3 0.0
01/12:30am 20.3 22.0 16.1 77 2.5 SSE 2 6 1 3 1018.5 1018.4 0.0
01/12:00am 20.9 22.9 15.9 73 3.0 CALM 0 0 0 0 1018.4 1018.3 0.0
 
Date/Time
CST
Temp
°C
App
Temp
°C
Dew
Point
Rel
Hum
%
Delta-T
°C
Wind Press
QNH
hPa
Press
MSL
hPa
Rain
since 9 am
mm
Dir
 
Spd
km/h
Gust
km/h
Spd
kts
Gust
kts
30/11:30pm 21.7 22.9 16.9 74 2.9 SSE 6 7 3 4 1018.3 1018.2 0.0
30/11:00pm 22.4 25.2 18.0 76 2.7 CALM 0 6 0 3 1018.4 1018.3 0.0
30/10:30pm 22.8 24.2 17.9 74 3.0 E 7 9 4 5 1018.4 1018.3 0.0
30/10:00pm 23.3 25.0 18.4 74 3.1 E 7 13 4 7 1018.6 1018.5 0.0
30/09:30pm 23.3 25.0 18.4 74 3.1 ENE 7 11 4 6 1018.4 1018.3 0.0
30/09:00pm 23.5 24.4 18.4 73 3.2 NE 11 15 6 8 1018.1 1018.0 0.0
30/08:30pm 23.8 24.5 18.0 70 3.6 ENE 11 19 6 10 1017.8 1017.7 0.0
30/08:00pm 24.1 24.7 17.8 68 3.9 NE 11 19 6 10 1017.3 1017.2 0.0
30/07:30pm 24.4 24.2 17.6 66 4.2 NE 15 24 8 13 1016.8 1016.7 0.0
30/07:00pm 24.8 24.9 17.5 64 4.6 NE 13 20 7 11 1016.4 1016.3 0.0
30/06:30pm 25.7 25.2 16.8 58 5.5 NNE 15 22 8 12 1015.9 1015.8 0.0
30/06:00pm 26.9 25.3 15.9 51 6.7 NE 19 26 10 14 1015.4 1015.3 0.0
30/05:30pm 28.8 26.9 15.3 43 8.3 NE 19 24 10 13 1015.0 1014.9 0.0
30/05:00pm 30.6 29.4 15.1 39 9.5 NNE 15 24 8 13 1014.6 1014.5 0.0
30/04:30pm 30.8 29.5 14.8 37 9.8 NE 15 22 8 12 1014.4 1014.3 0.0
30/04:00pm 32.0 29.8 10.7 27 12.3 ESE 13 20 7 11 1014.4 1014.3 0.0
30/03:30pm 31.9 29.8 11.1 28 12.1 ESE 13 17 7 9 1014.3 1014.2 0.0
30/03:00pm 32.4 30.6 11.0 27 12.4 ESE 11 20 6 11 1014.4 1014.3 0.0
30/02:30pm 32.5 29.5 10.5 26 12.7 SE 17 30 9 16 1014.7 1014.6 0.0
30/02:00pm 31.8 28.2 10.5 27 12.2 SSE 20 30 11 16 1015.0 1014.9 0.0
30/01:30pm 32.0 28.4 10.7 27 12.3 SE 20 32 11 17 1015.5 1015.4 0.0
30/01:00pm 31.5 28.4 10.2 27 12.2 ESE 17 24 9 13 1015.8 1015.7 0.0
30/12:30pm 31.6 28.2 11.4 29 11.8 ESE 20 33 11 18 1016.4 1016.3 0.0
30/12:00pm 30.9 27.4 10.8 29 11.5 SE 20 30 11 16 1017.0 1016.9 0.0
30/11:30am 30.2 26.1 10.2 29 11.3 E 22 32 12 17 1017.2 1017.1 0.0
30/11:00am 30.0 27.1 11.0 31 10.9 ESE 17 28 9 15 1017.6 1017.5 0.0
30/10:30am 29.5 25.9 10.6 31 10.7 ESE 20 30 11 16 1017.8 1017.7 0.0
30/10:00am 28.2 25.3 10.9 34 9.8 ESE 17 24 9 13 1018.0 1017.9 0.0
30/09:30am 26.3 24.0 10.5 37 8.8 S 13 19 7 10 1018.2 1018.1 0.0
30/09:00am 24.1 22.2 10.4 42 7.6 S 11 13 6 7 1018.2 1018.1 0.0
30/08:30am 22.4 21.5 11.2 49 6.2 SSW 7 11 4 6 1018.2 1018.1 0.0
30/08:00am 19.0 19.6 12.0 64 3.9 CALM 0 0 0 0 1017.9 1017.8 0.0
30/07:30am 16.9 17.3 11.2 69 3.1 CALM 0 0 0 0 1017.3 1017.2 0.0
30/07:00am 16.2 16.8 11.8 75 2.4 CALM 0 0 0 0 1017.0 1016.9 0.0
30/06:30am 17.0 17.5 11.7 71 2.9 CALM 0 0 0 0 1016.8 1016.7 0.0
30/06:00am 17.3 17.6 10.9 66 3.4 CALM 0 0 0 0 1016.6 1016.5 0.0
30/05:30am 16.9 17.1 10.7 67 3.3 CALM 0 0 0 0 1016.5 1016.4 0.0
30/05:00am 17.3 16.9 11.1 67 3.3 SSE 4 7 2 4 1016.5 1016.4 0.0
30/04:30am 17.8 18.2 11.4 66 3.5 CALM 0 0 0 0 1016.4 1016.3 0.0
30/04:00am 17.9 18.3 11.2 65 3.6 CALM 0 0 0 0 1016.5 1016.4 0.0
30/03:30am 17.5 18.2 12.2 71 2.9 CALM 0 0 0 0 1016.5 1016.4 0.0
30/03:00am 17.0 17.2 10.6 66 3.4 CALM 0 0 0 0 1016.7 1016.6 0.0
30/02:30am 16.6 16.8 10.5 67 3.2 CALM 0 0 0 0 1016.9 1016.8 0.0
30/02:00am 16.5 16.9 11.4 72 2.8 CALM 0 0 0 0 1017.2 1017.1 0.0
30/01:30am 16.5 16.8 10.8 69 3.0 CALM 0 0 0 0 1017.4 1017.3 0.0
30/01:00am 17.2 17.3 11.5 69 3.1 S 2 7 1 4 1017.6 1017.5 0.0
30/12:30am 17.2 17.7 11.5 69 3.1 CALM 0 0 0 0 1017.4 1017.3 0.0
30/12:00am 17.7 18.5 12.4 71 2.9 CALM 0 0 0 0 1017.5 1017.4 0.0
 
Date/Time
CST
Temp
°C
App
Temp
°C
Dew
Point
Rel
Hum
%
Delta-T
°C
Wind Press
QNH
hPa
Press
MSL
hPa
Rain
since 9 am
mm
Dir
 
Spd
km/h
Gust
km/h
Spd
kts
Gust
kts
29/11:30pm 17.4 17.8 11.4 68 3.3 CALM 0 0 0 0 1017.6 1017.5 0.0
29/11:00pm 18.5 18.9 11.1 62 4.0 CALM 0 0 0 0 1017.9 1017.8 0.0
29/10:30pm 19.0 18.2 11.1 60 4.3 SW 6 9 3 5 1018.1 1018.0 0.0
29/10:00pm 20.8 21.2 14.7 68 3.6 NE 6 7 3 4 1018.0 1017.9 0.0
29/09:30pm 21.1 22.0 12.8 59 4.7 CALM 0 0 0 0 1017.8 1017.7 0.0
29/09:00pm 22.7 23.1 14.8 61 4.7 NE 6 9 3 5 1017.6 1017.5 0.0
29/08:30pm 23.3 24.2 14.0 56 5.4 NE 2 7 1 4 1017.3 1017.2 0.0
29/08:00pm 24.1 24.0 13.3 51 6.3 NE 6 9 3 5 1016.9 1016.8 0.0
29/07:30pm 24.9 23.3 12.8 47 7.0 NE 13 19 7 10 1016.7 1016.6 0.0

Other Formats:

Comma delimited format used in spreadsheet applications
http://www.bom.gov.au/fwo/IDD60801/IDD60801.94152.axf

JavaScript Object Notation format (JSON) in row-major order
http://www.bom.gov.au/fwo/IDD60801/IDD60801.94152.json